Hovedside
METAR-TAF:

METAR-TAF

Lufthavner :

Manihiki, Cookøyene

breddegrad: 10-22-50S, lengdegrad: 160-59-59W, høyde over havet: 2 m

Gjeldene værobservasjon

Denne rapporten ble laget for 30 minutter siden, klokken 02:00 UTC
Vind 5 kt fra Sørøst
Temperatur 31°C
Luftfuktighet 75%
Trykk 1007 hPa

METAR: NCMH 200200Z AUTO 13005KT //// ////// 31/26 Q1007

Tid: 16:30 (02:30 UTC)


TAF: fraværende

Værobservasjoner og værvarsel for over 4000 flyplasser (METAR- og TAF-rapporter).

Tilgjengelige stasjoner er representert av de røde og gule prikkene på kartet.

Hold musepekeren over prikken for å se navnet på stasjonen.

Klikk så for å se værobservasjoner og -varsler.

For å forandre kartet kan du klikke på den grønne knappen med svart kryss for å zoome inn, på den grønne knappen med strek for å zoome ut, eller på de grønne pilene for å se tilstøtende kart.


METAR-TAF: